Time;durP1;ratioP1;P1;durP2;ratioP2;P2;SDS_P1;SDS_P2;PMS_P1;PMS_P2;Temp;Humidity;BMP_temperature;BMP_pressure;BME280_temperature;BME280_humidity;BME280_pressure;Samples;Min_cycle;Max_cycle;Signal;HPM_P1;HPM_P2
2022/08/13 00:02:04;;;;;;;3.07;1.60;;;23.50;73.50;;;;;;5054531;28;20481;-78
2022/08/13 00:04:31;;;;;;;3.07;1.40;;;23.50;73.00;;;;;;5055201;28;21025;-77
2022/08/13 00:07:08;;;;;;;10.80;6.07;;;23.40;73.80;;;;;;5062188;28;20443;-78
2022/08/13 00:09:39;;;;;;;2.87;1.47;;;23.40;75.50;;;;;;5057696;28;20475;-78
2022/08/13 00:14:53;;;;;;;2.90;1.50;;;23.40;73.60;;;;;;5053441;28;21250;-78
2022/08/13 00:17:21;;;;;;;3.27;1.37;;;23.30;73.20;;;;;;5063179;28;20451;-78
2022/08/13 00:19:53;;;;;;;2.80;1.50;;;23.20;74.70;;;;;;5072937;28;20558;-77
2022/08/13 00:22:25;;;;;;;3.17;1.40;;;23.20;74.20;;;;;;5066670;28;20454;-77
2022/08/13 00:24:52;;;;;;;3.03;1.60;;;23.20;75.50;;;;;;5064238;28;20554;-78
2022/08/13 00:27:22;;;;;;;2.43;1.30;;;23.20;74.70;;;;;;5063151;28;20959;-78
2022/08/13 00:29:50;;;;;;;4.10;1.47;;;23.10;75.00;;;;;;5075648;28;20471;-77
2022/08/13 00:32:21;;;;;;;2.70;1.27;;;23.10;73.70;;;;;;5067283;28;21012;-78
2022/08/13 00:34:51;;;;;;;3.37;1.40;;;23.10;73.90;;;;;;5055946;28;20527;-78
2022/08/13 00:37:18;;;;;;;3.30;1.20;;;23.10;74.70;;;;;;5062242;28;20848;-77
2022/08/13 00:39:46;;;;;;;2.93;1.30;;;23.10;76.90;;;;;;5062320;28;20573;-77
2022/08/13 00:42:13;;;;;;;3.80;1.20;;;23.10;74.60;;;;;;5062623;28;20454;-77
2022/08/13 00:44:40;;;;;;;2.83;1.40;;;23.10;74.60;;;;;;5065948;28;20482;-78
2022/08/13 00:49:53;;;;;;;3.80;1.30;;;23.10;74.90;;;;;;5035337;28;20530;-78
2022/08/13 00:52:20;;;;;;;2.77;1.10;;;23.10;75.40;;;;;;5063572;28;20451;-77
2022/08/13 00:54:49;;;;;;;3.97;1.47;;;23.10;74.80;;;;;;5071521;28;20470;-77
2022/08/13 00:57:16;;;;;;;2.93;1.20;;;23.10;75.80;;;;;;5074345;28;20482;-78
2022/08/13 00:59:46;;;;;;;4.87;1.30;;;23.10;74.80;;;;;;5054812;28;20515;-78
2022/08/13 01:02:15;;;;;;;2.97;1.20;;;23.10;75.30;;;;;;5054774;28;20448;-78
2022/08/13 01:04:43;;;;;;;2.73;1.30;;;23.10;75.60;;;;;;5053922;28;20491;-77
2022/08/13 01:07:12;;;;;;;3.27;1.50;;;23.00;76.20;;;;;;5054658;28;20463;-77
2022/08/13 01:09:42;;;;;;;3.03;1.33;;;23.00;76.50;;;;;;5065725;28;21392;-77
2022/08/13 01:12:10;;;;;;;4.40;1.50;;;23.00;77.90;;;;;;5053774;28;20967;-77
2022/08/13 01:14:39;;;;;;;3.33;1.20;;;23.00;76.10;;;;;;5052368;28;20502;-77
2022/08/13 01:17:07;;;;;;;3.77;1.57;;;23.00;75.20;;;;;;5064604;28;20471;-76
2022/08/13 01:19:35;;;;;;;2.60;1.30;;;23.00;77.00;;;;;;5055013;28;20482;-78
2022/08/13 01:22:03;;;;;;;3.60;1.33;;;22.90;81.00;;;;;;5053799;28;20522;-77
2022/08/13 01:24:31;;;;;;;2.00;0.93;;;22.90;77.10;;;;;;5053959;28;20562;-77
2022/08/13 01:26:58;;;;;;;3.57;1.40;;;22.90;78.40;;;;;;5051235;28;20467;-77
2022/08/13 01:29:26;;;;;;;3.70;1.60;;;22.90;78.30;;;;;;5053615;28;20551;-78
2022/08/13 01:31:54;;;;;;;2.27;1.10;;;22.80;79.80;;;;;;5053581;28;20558;-77
2022/08/13 01:34:23;;;;;;;4.37;1.40;;;22.70;77.90;;;;;;5053606;28;20821;-77
2022/08/13 01:36:51;;;;;;;2.13;1.20;;;22.70;79.80;;;;;;5054230;28;20444;-78
2022/08/13 01:39:19;;;;;;;4.00;1.60;;;22.70;81.60;;;;;;5054134;28;20480;-77
2022/08/13 01:41:47;;;;;;;4.87;1.47;;;22.70;80.40;;;;;;5054332;28;20474;-77
2022/08/13 01:44:15;;;;;;;3.37;1.40;;;22.60;79.90;;;;;;5054148;28;20864;-77
2022/08/13 01:52:13;;;;;;;3.17;1.70;;;22.30;82.90;;;;;;5054422;28;20412;-78
2022/08/13 01:54:44;;;;;;;3.33;1.70;;;22.30;83.80;;;;;;5053552;28;20455;-77
2022/08/13 01:57:11;;;;;;;2.97;1.60;;;22.10;85.50;;;;;;5053699;28;20866;-78
2022/08/13 01:59:41;;;;;;;3.10;1.50;;;22.10;86.40;;;;;;5053323;28;21028;-77
2022/08/13 02:02:10;;;;;;;4.90;1.90;;;22.00;85.60;;;;;;5053891;28;20466;-77
2022/08/13 02:04:37;;;;;;;4.17;1.50;;;21.90;86.20;;;;;;5052425;28;20480;-78
2022/08/13 02:07:05;;;;;;;2.57;1.33;;;21.80;90.10;;;;;;5053724;28;20495;-77
2022/08/13 02:09:32;;;;;;;3.80;1.90;;;21.80;90.90;;;;;;5053465;28;20701;-77
2022/08/13 02:12:01;;;;;;;2.83;1.53;;;21.70;91.60;;;;;;5053653;28;20463;-78
2022/08/13 02:14:29;;;;;;;3.23;1.60;;;21.60;92.40;;;;;;5053362;28;20447;-77
2022/08/13 02:16:56;;;;;;;3.50;1.60;;;21.50;93.10;;;;;;5052130;28;20547;-77
2022/08/13 02:19:23;;;;;;;4.70;1.67;;;21.50;93.50;;;;;;5053222;28;20492;-77
2022/08/13 02:21:51;;;;;;;3.13;1.20;;;21.50;94.00;;;;;;5052349;28;20939;-77
2022/08/13 02:24:18;;;;;;;2.77;1.30;;;21.50;93.50;;;;;;5052854;28;20565;-78
2022/08/13 02:26:45;;;;;;;3.63;1.57;;;21.40;94.40;;;;;;5053652;28;20893;-77
2022/08/13 02:29:14;;;;;;;3.03;1.53;;;21.40;95.20;;;;;;5052673;28;20566;-77
2022/08/13 02:31:42;;;;;;;3.57;1.77;;;21.40;94.50;;;;;;5053447;28;20538;-77
2022/08/13 02:34:11;;;;;;;4.07;1.80;;;21.30;94.60;;;;;;5052301;28;20448;-78
2022/08/13 02:36:40;;;;;;;3.00;1.40;;;21.30;95.20;;;;;;5050254;28;20460;-78
2022/08/13 02:39:08;;;;;;;3.00;2.00;;;21.30;96.00;;;;;;5045970;28;20873;-77
2022/08/13 02:41:38;;;;;;;2.83;1.47;;;21.20;96.70;;;;;;5053377;28;21004;-78
2022/08/13 02:44:05;;;;;;;5.67;1.47;;;21.10;96.40;;;;;;5052283;28;21055;-77
2022/08/13 02:46:33;;;;;;;3.93;1.23;;;21.10;96.90;;;;;;5053483;28;20535;-77
2022/08/13 02:49:02;;;;;;;3.43;1.27;;;21.10;97.70;;;;;;5054085;28;20917;-77
2022/08/13 02:51:30;;;;;;;5.23;1.50;;;21.00;98.10;;;;;;5054084;28;20498;-77
2022/08/13 02:53:59;;;;;;;3.20;1.40;;;21.00;98.20;;;;;;5057818;28;20516;-77
2022/08/13 02:56:26;;;;;;;3.03;1.40;;;21.00;98.90;;;;;;5061938;28;20988;-78
2022/08/13 02:58:53;;;;;;;3.20;1.50;;;20.90;99.90;;;;;;5054032;28;20579;-76
2022/08/13 03:01:20;;;;;;;3.50;1.40;;;20.90;99.90;;;;;;5052830;28;20444;-77
2022/08/13 03:03:48;;;;;;;3.60;1.40;;;20.90;99.90;;;;;;5052337;28;20515;-78
2022/08/13 03:06:18;;;;;;;2.83;1.13;;;20.80;99.90;;;;;;5052939;28;21052;-77
2022/08/13 03:08:45;;;;;;;2.80;1.40;;;20.80;99.90;;;;;;5052400;28;20476;-77
2022/08/13 03:11:12;;;;;;;2.93;1.50;;;20.80;99.90;;;;;;5053117;28;20543;-78
2022/08/13 03:13:43;;;;;;;3.10;1.70;;;20.80;99.90;;;;;;5052017;28;20440;-77
2022/08/13 03:16:13;;;;;;;3.57;1.40;;;20.70;99.90;;;;;;5052680;28;20458;-77
2022/08/13 03:18:40;;;;;;;3.87;1.60;;;20.70;99.90;;;;;;5052657;28;20858;-77
2022/08/13 03:21:08;;;;;;;4.17;1.60;;;20.70;99.90;;;;;;5052580;28;21007;-78
2022/08/13 03:23:35;;;;;;;2.87;1.57;;;20.60;99.90;;;;;;5050777;28;20849;-78
2022/08/13 03:26:02;;;;;;;2.73;1.43;;;20.60;99.90;;;;;;5052885;28;20459;-78
2022/08/13 03:28:29;;;;;;;3.10;1.53;;;20.60;99.90;;;;;;5052442;28;20506;-77
2022/08/13 03:30:55;;;;;;;3.53;1.40;;;20.60;99.90;;;;;;5052387;28;21082;-77
2022/08/13 03:33:22;;;;;;;6.77;1.90;;;20.60;99.90;;;;;;5031991;28;20447;-77
2022/08/13 03:35:50;;;;;;;3.80;1.70;;;20.50;99.90;;;;;;5032687;28;20492;-77
2022/08/13 03:38:18;;;;;;;3.40;1.50;;;20.50;99.90;;;;;;5042269;28;20505;-78
2022/08/13 03:41:11;;;;;;;5.10;1.40;;;20.40;99.90;;;;;;5052596;28;20451;-78
2022/08/13 03:43:42;;;;;;;2.83;1.70;;;20.40;99.90;;;;;;5051338;28;20523;-77
2022/08/13 03:46:11;;;;;;;7.60;1.50;;;20.30;99.90;;;;;;5052381;28;20494;-76
2022/08/13 03:48:38;;;;;;;3.00;1.63;;;20.30;99.90;;;;;;5051475;28;20486;-77
2022/08/13 03:51:06;;;;;;;2.60;1.60;;;20.30;99.90;;;;;;5052594;28;20478;-78
2022/08/13 03:53:35;;;;;;;3.00;1.70;;;20.20;99.90;;;;;;5051527;28;20451;-77
2022/08/13 03:56:02;;;;;;;4.80;1.37;;;20.20;99.90;;;;;;5052037;28;20554;-77
2022/08/13 03:58:29;;;;;;;6.50;1.60;;;20.20;99.90;;;;;;5051550;28;20482;-77
2022/08/13 04:00:57;;;;;;;3.60;1.80;;;20.20;99.90;;;;;;5051686;28;20456;-77
2022/08/13 04:03:28;;;;;;;3.03;1.40;;;20.10;99.90;;;;;;5052774;28;20587;-77
2022/08/13 04:05:58;;;;;;;2.87;1.43;;;20.10;99.90;;;;;;5064303;28;20456;-77
2022/08/13 04:08:27;;;;;;;6.33;1.63;;;20.10;99.90;;;;;;5051390;28;20555;-77
2022/08/13 04:10:56;;;;;;;4.53;1.67;;;20.10;99.90;;;;;;5051748;28;20498;-77
2022/08/13 04:13:25;;;;;;;7.43;1.80;;;20.10;99.90;;;;;;5050932;28;20947;-77
2022/08/13 04:15:52;;;;;;;3.20;1.87;;;20.00;99.90;;;;;;5051451;28;20971;-77
2022/08/13 04:18:19;;;;;;;3.63;1.90;;;20.00;99.90;;;;;;5051206;28;20507;-77
2022/08/13 04:20:52;;;;;;;2.57;1.53;;;20.10;99.90;;;;;;5051615;28;20543;-77
2022/08/13 04:23:20;;;;;;;4.80;1.73;;;20.10;99.90;;;;;;5046467;28;20456;-77
2022/08/13 04:25:49;;;;;;;3.03;1.47;;;20.00;99.90;;;;;;5051093;28;20571;-77
2022/08/13 04:28:20;;;;;;;2.43;1.20;;;20.00;99.90;;;;;;5051238;28;20487;-77
2022/08/13 04:30:47;;;;;;;3.37;1.50;;;20.00;99.90;;;;;;5051719;28;20943;-77
2022/08/13 04:33:16;;;;;;;5.93;1.53;;;19.90;99.90;;;;;;5050642;28;20538;-77
2022/08/13 04:35:44;;;;;;;4.03;1.70;;;19.90;99.90;;;;;;5051236;28;20570;-77
2022/08/13 04:38:11;;;;;;;3.47;1.83;;;19.80;99.90;;;;;;5050773;28;20551;-77
2022/08/13 04:40:40;;;;;;;4.13;1.47;;;19.80;99.90;;;;;;5054801;28;20541;-77
2022/08/13 04:43:09;;;;;;;3.83;1.90;;;19.80;99.90;;;;;;5053940;28;20586;-78
2022/08/13 04:45:38;;;;;;;3.30;1.60;;;19.70;99.90;;;;;;5054661;28;20486;-77
2022/08/13 04:48:09;;;;;;;3.03;1.47;;;19.70;99.90;;;;;;5054813;28;20538;-77
2022/08/13 04:50:37;;;;;;;3.60;1.80;;;19.70;99.90;;;;;;5054585;28;20502;-77
2022/08/13 04:53:06;;;;;;;3.23;1.63;;;19.70;99.90;;;;;;5053949;28;20514;-78
2022/08/13 04:55:33;;;;;;;3.43;1.40;;;19.70;99.90;;;;;;5057641;28;20527;-78
2022/08/13 04:58:00;;;;;;;3.43;1.70;;;19.70;99.90;;;;;;5059635;28;20537;-78
2022/08/13 05:00:32;;;;;;;3.20;1.40;;;19.70;99.90;;;;;;5054881;28;20435;-77
2022/08/13 05:03:07;;;;;;;5.37;1.37;;;19.70;99.90;;;;;;5053899;28;20455;-77
2022/08/13 05:05:35;;;;;;;4.83;1.77;;;19.70;99.90;;;;;;5054928;28;20566;-77
2022/08/13 05:08:02;;;;;;;4.13;1.90;;;19.70;99.90;;;;;;5054324;28;20452;-77
2022/08/13 05:10:31;;;;;;;2.80;1.70;;;19.70;99.90;;;;;;5053706;28;20487;-77
2022/08/13 05:13:00;;;;;;;3.43;1.83;;;19.70;99.90;;;;;;5053558;28;20447;-76
2022/08/13 05:15:27;;;;;;;3.40;2.00;;;19.70;99.90;;;;;;5053776;28;20448;-76
2022/08/13 05:17:54;;;;;;;3.50;1.67;;;19.70;99.90;;;;;;5053718;28;20463;-77
2022/08/13 05:20:25;;;;;;;2.97;1.60;;;19.70;99.90;;;;;;5053915;28;20491;-77
2022/08/13 05:22:56;;;;;;;3.57;1.97;;;19.80;99.90;;;;;;5052289;28;20993;-77
2022/08/13 05:25:22;;;;;;;3.47;1.70;;;19.80;99.90;;;;;;5053675;28;20486;-76
2022/08/13 05:27:49;;;;;;;4.63;1.73;;;19.80;99.90;;;;;;5053313;28;20530;-76
2022/08/13 05:30:16;;;;;;;4.47;2.23;;;19.90;99.90;;;;;;5047450;28;20482;-77
2022/08/13 05:32:43;;;;;;;3.80;2.20;;;20.00;99.90;;;;;;5057242;28;20550;-77
2022/08/13 05:35:11;;;;;;;3.30;1.73;;;20.00;99.90;;;;;;5057348;28;20455;-77
2022/08/13 05:37:39;;;;;;;4.83;1.80;;;20.00;99.90;;;;;;5062899;28;20458;-77
2022/08/13 05:40:07;;;;;;;4.33;1.67;;;20.10;99.90;;;;;;5053703;28;20500;-77
2022/08/13 05:42:39;;;;;;;3.27;1.77;;;20.20;99.90;;;;;;5053000;28;20877;-76
2022/08/13 05:45:07;;;;;;;3.50;2.10;;;20.20;99.90;;;;;;5052590;28;20529;-77
2022/08/13 05:47:35;;;;;;;5.93;2.20;;;20.30;99.90;;;;;;5053090;28;20455;-76
2022/08/13 05:50:02;;;;;;;6.20;1.70;;;20.30;99.90;;;;;;5051841;28;20475;-76
2022/08/13 05:52:32;;;;;;;2.73;1.57;;;20.30;99.90;;;;;;5058362;28;20537;-76
2022/08/13 05:55:00;;;;;;;4.13;2.00;;;20.40;99.90;;;;;;5055770;28;20495;-76
2022/08/13 05:57:27;;;;;;;3.37;2.00;;;20.40;99.90;;;;;;5052746;28;20554;-76
2022/08/13 06:05:23;;;;;;;3.37;2.00;;;20.60;99.90;;;;;;5069575;28;20855;-76
2022/08/13 06:07:49;;;;;;;4.17;1.77;;;20.60;99.90;;;;;;5068171;28;20450;-77
2022/08/13 06:10:20;;;;;;;7.77;1.80;;;20.70;99.90;;;;;;5052027;28;20483;-76
2022/08/13 06:12:47;;;;;;;4.30;1.80;;;20.70;99.90;;;;;;5052567;28;20534;-76
2022/08/13 06:15:14;;;;;;;4.60;2.10;;;20.80;99.90;;;;;;5053103;28;20444;-78
2022/08/13 06:17:42;;;;;;;6.17;1.67;;;20.90;99.90;;;;;;5052658;28;20985;-76
2022/08/13 06:20:11;;;;;;;3.13;1.70;;;20.90;99.90;;;;;;5052942;28;20551;-77
2022/08/13 06:22:40;;;;;;;3.10;1.70;;;21.00;99.90;;;;;;5052060;28;20464;-77
2022/08/13 06:25:07;;;;;;;4.23;2.00;;;21.00;99.90;;;;;;5051964;28;20492;-77
2022/08/13 06:27:36;;;;;;;3.40;1.77;;;21.10;99.90;;;;;;5052316;28;20447;-77
2022/08/13 06:30:04;;;;;;;4.10;1.90;;;21.20;99.90;;;;;;5051536;28;20515;-76
2022/08/13 06:32:31;;;;;;;3.97;1.87;;;21.20;99.90;;;;;;5052440;28;20963;-77
2022/08/13 06:34:59;;;;;;;3.40;2.10;;;21.30;99.90;;;;;;5084041;22;20508;-81
2022/08/13 06:37:27;;;;;;;6.10;1.93;;;21.30;99.90;;;;;;5071477;28;20454;-79
2022/08/13 06:39:57;;;;;;;4.00;1.70;;;21.40;99.90;;;;;;5073499;28;20906;-79
2022/08/13 06:42:24;;;;;;;4.10;1.60;;;21.50;99.90;;;;;;5073941;28;20443;-79
2022/08/13 06:44:55;;;;;;;4.20;1.70;;;21.50;99.90;;;;;;5065158;28;20534;-80
2022/08/13 06:47:25;;;;;;;5.00;1.83;;;21.60;99.90;;;;;;5049021;28;20464;-80
2022/08/13 06:49:53;;;;;;;4.73;2.43;;;21.70;99.90;;;;;;5053104;28;20452;-79
2022/08/13 06:52:20;;;;;;;3.37;1.70;;;21.80;99.90;;;;;;5045814;28;20443;-78
2022/08/13 06:54:48;;;;;;;3.60;1.80;;;21.90;99.90;;;;;;5046591;28;20506;-79
2022/08/13 06:57:16;;;;;;;5.20;1.80;;;22.00;99.90;;;;;;5052445;28;20963;-77
2022/08/13 06:59:43;;;;;;;3.60;1.83;;;22.10;99.90;;;;;;5045703;28;20448;-78
2022/08/13 07:02:21;;;;;;;4.87;1.70;;;22.20;99.90;;;;;;5052967;28;20815;-77
2022/08/13 07:04:48;;;;;;;3.03;1.90;;;22.30;99.90;;;;;;5040718;28;20546;-80
2022/08/13 07:07:17;;;;;;;6.50;1.97;;;22.40;99.90;;;;;;5045634;28;20458;-76
2022/08/13 07:09:45;;;;;;;4.20;2.13;;;22.40;99.90;;;;;;5047009;28;20978;-79
2022/08/13 07:12:13;;;;;;;3.73;1.67;;;22.50;99.90;;;;;;5050975;28;20494;-77
2022/08/13 07:14:42;;;;;;;2.70;1.53;;;22.60;99.90;;;;;;5049127;28;20488;-82
2022/08/13 07:17:11;;;;;;;4.37;2.00;;;22.70;99.90;;;;;;5051610;28;20480;-77
2022/08/13 07:19:38;;;;;;;2.93;1.53;;;22.80;99.90;;;;;;5050046;28;20483;-78
2022/08/13 07:22:05;;;;;;;3.70;1.50;;;22.90;99.90;;;;;;5052018;28;20502;-78
2022/08/13 07:24:33;;;;;;;4.20;1.50;;;23.00;99.90;;;;;;5050098;28;20546;-80
2022/08/13 07:27:05;;;;;;;3.07;1.70;;;23.10;99.90;;;;;;5048445;28;20467;-78
2022/08/13 07:29:36;;;;;;;3.80;1.70;;;23.20;99.90;;;;;;5045307;28;20952;-77
2022/08/13 07:32:04;;;;;;;4.53;1.67;;;23.30;99.90;;;;;;5051226;28;20448;-78
2022/08/13 07:34:34;;;;;;;3.20;1.60;;;23.40;99.90;;;;;;5049640;28;20514;-80
2022/08/13 07:37:03;;;;;;;5.47;1.60;;;23.50;99.90;;;;;;5052492;28;20501;-78
2022/08/13 07:39:31;;;;;;;4.83;1.80;;;23.60;99.90;;;;;;5050861;28;20455;-79
2022/08/13 07:41:59;;;;;;;3.27;1.47;;;23.70;99.90;;;;;;5051677;28;20463;-78
2022/08/13 07:44:25;;;;;;;4.40;1.55;;;23.70;99.90;;;;;;5050824;28;20567;-79
2022/08/13 07:46:54;;;;;;;3.63;1.80;;;23.80;99.90;;;;;;5048650;28;20482;-78
2022/08/13 07:49:22;;;;;;;2.97;2.00;;;23.90;99.90;;;;;;5046632;28;20824;-79
2022/08/13 07:51:51;;;;;;;3.20;1.70;;;24.00;99.90;;;;;;5050935;28;20448;-78
2022/08/13 07:54:18;;;;;;;4.43;1.47;;;24.20;99.90;;;;;;5047834;28;20558;-78
2022/08/13 07:56:53;;;;;;;3.43;1.53;;;24.30;99.90;;;;;;5051200;28;20444;-80
2022/08/13 07:59:20;;;;;;;3.70;1.90;;;24.40;99.90;;;;;;5053240;28;20452;-79
2022/08/13 08:01:49;;;;;;;2.87;1.50;;;24.50;99.90;;;;;;5057853;28;20448;-80
2022/08/13 08:04:17;;;;;;;3.90;1.70;;;24.50;99.90;;;;;;5059329;28;20546;-80
2022/08/13 08:06:46;;;;;;;4.70;1.50;;;24.60;99.90;;;;;;5058047;28;20487;-77
2022/08/13 08:09:17;;;;;;;2.97;1.50;;;24.70;99.90;;;;;;5050542;28;20831;-80
2022/08/13 08:14:30;;;;;;;3.73;1.43;;;25.00;99.90;;;;;;5051555;28;20966;-79
2022/08/13 08:16:59;;;;;;;4.07;1.40;;;25.10;99.90;;;;;;5051561;28;20956;-79
2022/08/13 08:19:27;;;;;;;2.43;1.20;;;25.20;99.90;;;;;;5050526;28;20463;-78
2022/08/13 08:21:56;;;;;;;2.80;1.50;;;25.30;99.90;;;;;;5051035;28;20456;-78
2022/08/13 08:24:25;;;;;;;3.80;1.60;;;25.40;99.90;;;;;;5053865;28;20483;-80
2022/08/13 08:26:53;;;;;;;3.70;1.50;;;25.50;99.90;;;;;;5039887;28;20511;-77
2022/08/13 08:29:20;;;;;;;3.27;1.30;;;25.60;99.90;;;;;;5054623;28;20452;-77
2022/08/13 08:31:49;;;;;;;4.17;1.20;;;25.70;99.90;;;;;;5055609;28;20460;-80
2022/08/13 08:34:18;;;;;;;2.13;1.37;;;25.90;99.90;;;;;;5054203;28;20537;-80
2022/08/13 08:36:46;;;;;;;4.40;1.60;;;26.10;99.90;;;;;;5055366;28;20530;-79
2022/08/13 08:44:49;;;;;;;3.67;1.70;;;26.70;99.90;;;;;;5054099;28;20459;-79
2022/08/13 08:47:16;;;;;;;5.87;1.50;;;27.00;99.90;;;;;;5049551;28;20452;-81
2022/08/13 08:49:43;;;;;;;2.37;1.40;;;27.10;99.90;;;;;;5050561;28;20552;-80
2022/08/13 08:52:11;;;;;;;3.37;1.80;;;27.40;99.90;;;;;;5054703;28;20460;-80
2022/08/13 08:54:39;;;;;;;2.80;1.40;;;27.60;99.90;;;;;;5053525;28;20489;-79
2022/08/13 08:57:08;;;;;;;3.30;1.40;;;27.80;99.90;;;;;;5054638;28;20555;-80
2022/08/13 08:59:39;;;;;;;3.77;1.77;;;28.00;99.90;;;;;;5053738;28;20527;-79
2022/08/13 09:02:18;;;;;;;4.90;1.60;;;28.30;99.90;;;;;;5055354;28;20827;-78
2022/08/13 09:04:54;;;;;;;3.37;1.70;;;28.50;99.90;;;;;;5053594;28;20506;-78
2022/08/13 09:07:24;;;;;;;4.20;1.40;;;28.70;99.90;;;;;;5054952;28;20440;-80
2022/08/13 09:09:55;;;;;;;3.63;1.50;;;28.80;99.90;;;;;;5054354;28;20454;-80
2022/08/13 09:12:26;;;;;;;2.60;1.40;;;29.00;99.90;;;;;;5055114;28;20547;-78
2022/08/13 09:14:53;;;;;;;3.47;1.37;;;29.10;99.90;;;;;;5054433;28;20539;-81
2022/08/13 09:17:21;;;;;;;3.77;1.60;;;29.20;99.90;;;;;;5048925;28;20454;-77
2022/08/13 09:19:48;;;;;;;3.00;1.20;;;29.40;99.90;;;;;;5046009;28;20487;-78
2022/08/13 09:22:20;;;;;;;2.47;1.50;;;29.60;99.90;;;;;;5052469;28;20535;-78
2022/08/13 09:24:48;;;;;;;7.73;2.70;;;29.70;99.90;;;;;;5052776;28;20469;-77
2022/08/13 09:27:17;;;;;;;2.80;1.33;;;29.70;99.90;;;;;;5053110;28;20545;-77
2022/08/13 09:29:50;;;;;;;4.97;1.83;;;29.90;99.90;;;;;;5048239;28;20463;-76
2022/08/13 09:32:17;;;;;;;3.20;1.40;;;30.00;99.90;;;;;;5037695;28;20464;-84
2022/08/13 09:34:44;;;;;;;3.63;1.47;;;30.10;99.90;;;;;;5044277;28;20571;-77
2022/08/13 09:37:12;;;;;;;2.40;1.30;;;30.20;99.90;;;;;;5043022;28;20916;-76
2022/08/13 09:39:49;;;;;;;4.07;1.80;;;30.30;99.90;;;;;;5047210;28;21101;-81
2022/08/13 09:42:23;;;;;;;3.10;1.60;;;30.60;99.90;;;;;;5047176;28;20453;-77
2022/08/13 09:44:54;;;;;;;2.37;1.30;;;30.80;99.90;;;;;;5046908;28;20551;-77
2022/08/13 09:47:20;;;;;;;3.63;1.87;;;30.90;99.90;;;;;;5048086;28;20476;-79
2022/08/13 09:49:48;;;;;;;2.43;1.47;;;30.70;99.90;;;;;;5048323;28;20985;-78
2022/08/13 09:52:15;;;;;;;6.00;1.70;;;31.10;99.90;;;;;;5051977;28;20456;-79
2022/08/13 09:54:42;;;;;;;3.00;1.60;;;31.30;99.90;;;;;;5047634;28;20471;-80
2022/08/13 09:57:09;;;;;;;2.87;1.77;;;31.50;99.90;;;;;;5049254;28;20498;-78
2022/08/13 09:59:36;;;;;;;3.40;1.67;;;31.50;99.90;;;;;;5053273;28;20487;-78
2022/08/13 10:02:09;;;;;;;3.03;1.73;;;31.70;99.90;;;;;;5045352;28;21039;-79
2022/08/13 10:04:37;;;;;;;3.40;1.53;;;31.70;99.90;;;;;;5049346;28;20481;-79
2022/08/13 10:07:05;;;;;;;3.20;1.60;;;31.90;99.90;;;;;;5044271;28;20483;-80
2022/08/13 10:09:34;;;;;;;3.10;1.70;;;31.90;99.90;;;;;;5045944;28;20543;-78
2022/08/13 10:12:01;;;;;;;2.67;1.80;;;31.80;99.90;;;;;;5051340;28;20474;-80
2022/08/13 10:14:28;;;;;;;3.90;1.63;;;31.80;99.90;;;;;;5048405;28;20476;-79
2022/08/13 10:16:55;;;;;;;2.50;1.50;;;32.10;99.90;;;;;;5044787;28;20538;-79
2022/08/13 10:19:24;;;;;;;3.63;1.60;;;32.00;99.90;;;;;;5044725;28;20543;-79
2022/08/13 10:21:51;;;;;;;2.33;1.30;;;32.20;99.90;;;;;;5042439;28;20449;-78
2022/08/13 10:24:18;;;;;;;2.77;1.40;;;32.20;99.90;;;;;;5043438;28;20474;-79
2022/08/13 10:26:45;;;;;;;3.00;1.20;;;32.20;99.90;;;;;;5046304;28;20570;-79
2022/08/13 10:29:12;;;;;;;2.70;1.43;;;32.30;99.90;;;;;;5047501;28;20543;-80
2022/08/13 10:31:39;;;;;;;3.20;1.83;;;32.30;99.90;;;;;;5043221;28;20539;-79
2022/08/13 10:34:07;;;;;;;2.60;1.50;;;32.80;99.90;;;;;;5044566;28;21048;-79
2022/08/13 10:36:37;;;;;;;3.77;1.70;;;33.10;99.90;;;;;;5042513;28;20437;-80
2022/08/13 10:39:07;;;;;;;4.93;1.63;;;33.00;99.90;;;;;;5041398;28;20460;-79
2022/08/13 10:41:34;;;;;;;3.17;1.60;;;33.10;97.30;;;;;;5050814;28;20459;-81
2022/08/13 10:44:00;;;;;;;2.80;1.43;;;33.10;95.80;;;;;;5053022;28;20448;-81
2022/08/13 10:46:30;;;;;;;5.87;1.37;;;33.20;99.90;;;;;;5053546;28;20484;-80
2022/08/13 10:48:58;;;;;;;3.20;1.60;;;33.60;95.30;;;;;;5053903;28;20543;-81
2022/08/13 10:51:26;;;;;;;2.10;1.20;;;33.30;99.90;;;;;;5053341;28;20498;-80
2022/08/13 10:53:58;;;;;;;2.60;1.30;;;33.10;99.90;;;;;;5053100;28;20462;-79
2022/08/13 10:56:27;;;;;;;4.73;1.30;;;33.50;94.50;;;;;;5054032;28;20534;-81
2022/08/13 10:58:56;;;;;;;4.77;1.40;;;33.80;98.80;;;;;;5052084;28;21803;-80
2022/08/13 11:01:24;;;;;;;3.87;1.40;;;33.80;98.60;;;;;;5043693;28;20448;-79
2022/08/13 11:03:52;;;;;;;4.13;1.63;;;33.80;99.90;;;;;;5053557;28;20863;-80
2022/08/13 11:06:20;;;;;;;2.90;1.33;;;33.60;92.70;;;;;;5052111;28;20477;-80
2022/08/13 11:08:47;;;;;;;3.53;1.40;;;33.90;96.00;;;;;;5042148;28;20444;-80
2022/08/13 11:11:16;;;;;;;2.77;1.37;;;34.00;93.50;;;;;;5046969;28;20444;-79
2022/08/13 11:13:44;;;;;;;3.47;1.50;;;34.20;95.10;;;;;;5049293;28;20534;-80
2022/08/13 11:16:56;;;;;;;2.50;1.30;;;34.40;96.10;;;;;;5053462;28;20507;-80
2022/08/13 11:19:14;;;;;;;2.63;1.50;;;34.60;96.50;;;;;;5054564;28;20447;-80
2022/08/13 11:21:42;;;;;;;2.30;1.30;;;34.40;94.90;;;;;;5054320;28;20451;-80
2022/08/13 11:24:09;;;;;;;3.07;1.67;;;34.60;92.00;;;;;;5053575;28;20452;-79
2022/08/13 11:26:38;;;;;;;3.10;1.40;;;34.50;91.70;;;;;;5054007;28;20488;-81
2022/08/13 11:29:07;;;;;;;2.27;1.33;;;34.30;83.40;;;;;;5057895;28;20454;-79
2022/08/13 11:31:34;;;;;;;7.93;1.50;;;34.50;91.20;;;;;;5051686;28;20476;-81
2022/08/13 11:34:06;;;;;;;3.53;1.20;;;34.90;90.10;;;;;;5048225;28;20831;-80
2022/08/13 11:36:34;;;;;;;4.67;1.90;;;34.80;96.70;;;;;;5046907;28;21129;-78
2022/08/13 11:39:01;;;;;;;3.40;1.30;;;34.60;95.40;;;;;;5042900;28;20456;-80
2022/08/13 11:41:28;;;;;;;5.03;1.60;;;35.00;96.70;;;;;;5040189;28;20448;-79
2022/08/13 11:43:56;;;;;;;2.97;1.43;;;35.00;91.50;;;;;;5044345;28;20484;-79
2022/08/13 11:46:23;;;;;;;3.87;1.87;;;35.10;91.70;;;;;;5043407;28;20491;-79
2022/08/13 11:48:50;;;;;;;2.73;1.40;;;35.10;95.90;;;;;;5042668;28;20568;-78
2022/08/13 11:51:17;;;;;;;4.30;1.90;;;35.30;90.10;;;;;;5044072;28;20472;-79
2022/08/13 11:53:44;;;;;;;3.77;1.50;;;35.20;88.10;;;;;;5044545;28;20528;-80
2022/08/13 11:56:11;;;;;;;2.77;1.57;;;35.60;94.20;;;;;;5047068;28;20468;-81
2022/08/13 11:58:38;;;;;;;4.67;1.50;;;35.90;89.50;;;;;;5043080;28;20536;-82
2022/08/13 12:01:07;;;;;;;2.50;1.60;;;36.30;91.30;;;;;;5049416;28;20484;-82
2022/08/13 12:03:39;;;;;;;3.97;1.73;;;35.70;82.70;;;;;;5050411;28;20449;-81
2022/08/13 12:06:06;;;;;;;3.40;1.60;;;35.80;91.50;;;;;;5047281;28;20483;-81
2022/08/13 12:08:33;;;;;;;2.73;1.70;;;36.10;94.20;;;;;;5043683;28;21176;-82
2022/08/13 12:11:03;;;;;;;2.73;1.50;;;36.00;94.60;;;;;;5049449;28;20537;-80
2022/08/13 12:13:30;;;;;;;5.50;2.00;;;36.10;95.60;;;;;;5051283;28;21019;-80
2022/08/13 12:15:58;;;;;;;3.10;1.73;;;36.00;92.60;;;;;;5054134;28;21067;-80
2022/08/13 12:18:26;;;;;;;3.03;1.70;;;36.60;90.50;;;;;;5057698;28;20542;-80
2022/08/13 12:20:59;;;;;;;3.90;2.00;;;36.40;95.10;;;;;;5052155;28;20480;-79
2022/08/13 12:23:26;;;;;;;2.90;1.60;;;36.50;91.10;;;;;;5057292;28;20448;-81
2022/08/13 12:25:55;;;;;;;3.63;1.70;;;36.30;91.60;;;;;;5058648;28;20563;-79
2022/08/13 12:28:24;;;;;;;2.60;1.60;;;36.20;87.60;;;;;;5057882;28;20459;-80
2022/08/13 12:30:53;;;;;;;3.80;1.50;;;36.50;90.10;;;;;;5058061;28;20534;-81
2022/08/13 12:33:20;;;;;;;5.03;1.80;;;36.90;86.40;;;;;;5058311;28;20494;-80
2022/08/13 12:36:06;;;;;;;;;;;;;;;;;;;;;
2022/08/13 12:38:34;;;;;;;3.67;1.60;;;36.90;88.30;;;;;;5056640;28;20436;-78
2022/08/13 12:41:01;;;;;;;3.07;1.73;;;37.10;73.90;;;;;;5056648;28;20550;-78
2022/08/13 12:43:32;;;;;;;2.33;1.27;;;37.30;75.00;;;;;;5056484;28;20551;-78
2022/08/13 12:45:58;;;;;;;6.10;1.83;;;37.20;76.20;;;;;;5058094;28;20503;-79
2022/08/13 12:48:30;;;;;;;3.00;1.67;;;37.40;85.40;;;;;;5050759;28;20472;-80
2022/08/13 12:51:00;;;;;;;2.80;1.80;;;37.40;80.60;;;;;;5053260;28;20470;-79
2022/08/13 12:53:27;;;;;;;3.03;1.60;;;37.20;91.70;;;;;;5057042;28;20837;-79
2022/08/13 12:55:54;;;;;;;2.50;1.50;;;37.50;90.00;;;;;;5056681;28;20472;-82
2022/08/13 12:58:22;;;;;;;4.13;1.70;;;37.60;73.70;;;;;;5058293;28;20500;-80
2022/08/13 13:00:51;;;;;;;3.13;1.90;;;37.50;83.10;;;;;;5057073;28;20550;-79
2022/08/13 13:03:19;;;;;;;2.60;1.80;;;37.70;79.30;;;;;;5059044;28;20898;-80
2022/08/13 13:05:51;;;;;;;3.10;2.00;;;37.80;86.50;;;;;;5058402;28;20471;-80
2022/08/13 13:08:22;;;;;;;3.07;2.00;;;37.40;83.40;;;;;;5053815;28;20492;-78
2022/08/13 13:10:51;;;;;;;4.00;1.60;;;38.00;84.20;;;;;;5057511;28;20466;-80
2022/08/13 13:13:20;;;;;;;2.67;1.80;;;38.70;73.40;;;;;;5054390;28;20456;-81
2022/08/13 13:15:47;;;;;;;4.17;1.83;;;38.70;80.70;;;;;;5057718;28;20556;-79
2022/08/13 13:18:16;;;;;;;3.73;2.13;;;38.20;77.70;;;;;;5056200;28;20534;-79
2022/08/13 13:20:43;;;;;;;4.83;2.30;;;37.70;88.60;;;;;;5045542;28;20477;-80